London Express — DPLE — position and weather

sailwx.info

Track history (hours):
 
Tides and Currents Weather Stations Pressure Air Temp Water Temp Dewpoint Dewpoint Depression Visibility Wind Speed Wind Dir Waves Ship Positions

London Express

Last reported at 2017-Jan-22 13:31 UTC. Time now 2017-Jan-22 14:24 UTC.
Position N 37°45' W 122°21'.

Length 294 m; beam 32.3 m; draft 13.6 m.

Type: Ship. MMSI: 211262630.

Date/timePositionNaut miles runAvg speedWind from/ knotsBaromVisibWave heightAir tempDewpointWater temp
2017-Jan-22 13:31N 37°45' W 122°21'0 0.3
2017-Jan-22 12:31N 37°45' W 122°21'0 0.2
2017-Jan-22 11:33N 37°45' W 122°21'0 0.0
2017-Jan-22 10:33N 37°45' W 122°21'0 0.1
2017-Jan-22 09:33N 37°45' W 122°21'0 0.0
2017-Jan-22 08:32N 37°45' W 122°21'0 0.0
2017-Jan-22 07:32N 37°45' W 122°21'0 0.0
2017-Jan-22 06:31N 37°45' W 122°21'1018.0
2017-Jan-22 06:00N 37°36' W 122°18'1020.1 140 / 301009.510.8 10.2 9.011.0
2017-Jan-22 05:31N 37°45' W 122°21'0 0.2
2017-Jan-22 04:33N 37°45' W 122°21'0 0.2
2017-Jan-22 03:33N 37°45' W 122°21'0 0.0
2017-Jan-22 02:33N 37°45' W 122°21'0 0.3
2017-Jan-22 01:32N 37°45' W 122°21'0 0.2
2017-Jan-22 00:32N 37°45' W 122°21'0 0.0
2017-Jan-21 23:31N 37°45' W 122°21'0 0.0
2017-Jan-21 22:31N 37°45' W 122°21'0 0.0
2017-Jan-21 21:33N 37°45' W 122°21'0 0.0
2017-Jan-21 20:33N 37°45' W 122°21'0 0.0
2017-Jan-21 19:33N 37°45' W 122°21'0 0.0
2017-Jan-21 18:32N 37°45' W 122°21'4 7.6
2017-Jan-21 18:00N 37°42' W 122°18'4 8.9 230 / 121010.110.8 15.010.912.0
2017-Jan-21 17:32N 37°45' W 122°21'0 0.0
2017-Jan-21 16:31N 37°45' W 122°21'0 0.3
2017-Jan-21 15:31N 37°45' W 122°21'0 0.1
2017-Jan-21 14:34N 37°45' W 122°21'0 0.1
2017-Jan-21 13:33N 37°45' W 122°21'0 0.0
2017-Jan-21 12:33N 37°45' W 122°21'0 0.0
2017-Jan-21 11:32N 37°45' W 122°21'0 0.1
2017-Jan-21 10:32N 37°45' W 122°21'0 0.1
2017-Jan-21 09:31N 37°45' W 122°21'0 0.3
2017-Jan-21 08:31N 37°45' W 122°21'0 0.0
2017-Jan-21 07:30N 37°45' W 122°21'0 0.0
2017-Jan-21 06:33N 37°45' W 122°21'0 0.0
2017-Jan-21 05:33N 37°45' W 122°21'0 0.1
2017-Jan-21 04:32N 37°45' W 122°21'0 0.2
2017-Jan-21 03:32N 37°45' W 122°21'0 0.1
2017-Jan-21 02:31N 37°45' W 122°21'0 0.0
2017-Jan-21 01:31N 37°45' W 122°21'0 0.1
2017-Jan-21 00:33N 37°45' W 122°21'0 0.1
2017-Jan-20 23:33N 37°45' W 122°21'0 0.1
2017-Jan-20 22:33N 37°45' W 122°21'0 0.2
2017-Jan-20 21:32N 37°45' W 122°21'0 0.0
2017-Jan-20 20:32N 37°45' W 122°21'0 0.1
2017-Jan-20 19:34N 37°45' W 122°21'3 3.2
2017-Jan-20 18:33N 37°48' W 122°19'0 0.1
2017-Jan-20 17:33N 37°48' W 122°19'0 0.0
2017-Jan-20 16:33N 37°48' W 122°19'0 0.0
2017-Jan-20 15:32N 37°48' W 122°19'0 0.0
2017-Jan-20 14:33N 37°48' W 122°19'0 0.0
2017-Jan-20 13:31N 37°48' W 122°19'0 0.0
2017-Jan-20 12:33N 37°48' W 122°19'0 0.0
2017-Jan-20 11:33N 37°48' W 122°19'0 0.0
2017-Jan-20 10:32N 37°48' W 122°19'0 0.0
2017-Jan-20 09:32N 37°48' W 122°19'0 0.0
2017-Jan-20 08:32N 37°48' W 122°19'0 0.0
2017-Jan-20 07:31N 37°48' W 122°19'0 0.0
2017-Jan-20 06:31N 37°48' W 122°19'0 0.0
2017-Jan-20 05:33N 37°48' W 122°19'0 0.0
2017-Jan-20 04:33N 37°48' W 122°19'0 0.0
2017-Jan-20 03:32N 37°48' W 122°19'0 0.0
2017-Jan-20 02:32N 37°48' W 122°19'0 0.0
2017-Jan-20 01:31N 37°48' W 122°19'0 0.0
2017-Jan-20 00:31N 37°48' W 122°19'0 0.0
2017-Jan-19 23:31N 37°48' W 122°19'0 0.0
2017-Jan-19 22:33N 37°48' W 122°19'0 0.0
2017-Jan-19 21:33N 37°48' W 122°19'0 0.0
2017-Jan-19 20:33N 37°48' W 122°19'0 0.0
2017-Jan-19 19:32N 37°48' W 122°19'0 0.0
2017-Jan-19 18:32N 37°48' W 122°19'0 0.0
2017-Jan-19 17:31N 37°48' W 122°19'0 0.0
2017-Jan-19 16:31N 37°48' W 122°19'0 0.0
2017-Jan-19 15:34N 37°48' W 122°19'0 0.0
2017-Jan-19 14:33N 37°48' W 122°19'1 0.6
2017-Jan-19 13:33N 37°48' W 122°18'1 0.6
2017-Jan-19 12:34N 37°48' W 122°19'3 3.1
2017-Jan-19 11:33N 37°45' W 122°21'0 0.0
2017-Jan-19 10:31N 37°45' W 122°21'0 0.0
2017-Jan-19 09:31N 37°45' W 122°21'0 0.2
2017-Jan-19 08:34N 37°45' W 122°21'0 0.2
2017-Jan-19 07:33N 37°45' W 122°21'0 0.1
2017-Jan-19 06:33N 37°45' W 122°21'0 0.0
2017-Jan-19 05:32N 37°45' W 122°21'0 0.0
2017-Jan-19 04:32N 37°45' W 122°21'0 0.0
2017-Jan-19 03:31N 37°45' W 122°21'0 0.0
2017-Jan-19 02:31N 37°45' W 122°21'0 0.0
2017-Jan-19 01:33N 37°45' W 122°21'0 0.0
2017-Jan-19 00:33N 37°45' W 122°21'0 0.1
2017-Jan-18 23:33N 37°45' W 122°21'0 0.1
2017-Jan-18 22:32N 37°45' W 122°21'0 0.1
2017-Jan-18 21:32N 37°45' W 122°21'0 0.0
2017-Jan-18 20:31N 37°45' W 122°21'0 0.1
2017-Jan-18 19:34N 37°45' W 122°21'8 8.0
2017-Jan-18 18:33N 37°48' W 122°31'1211.8
2017-Jan-18 17:33N 37°47' W 122°45'9 9.4
2017-Jan-18 16:33N 37°51' W 122°56'1111.4
2017-Jan-18 15:33N 37°56' W 123°09'1212.2
2017-Jan-18 14:33N 38°05' W 123°19'1313.2
2017-Jan-18 13:33N 38°15' W 123°30'1313.0
2017-Jan-18 12:33N 38°24' W 123°42'1312.4
2017-Jan-18 11:31N 38°33' W 123°54'1212.8
2017-Jan-18 10:33N 38°41' W 124°06'14610.8
2017-Jan-17 21:00N 41°00' W 125°06'3612.0 180 / 401012.5 5.4 11.6 8.612.0
2017-Jan-17 18:00N 41°36' W 125°06'14213.0 170 / 391014.410.8 10.9 6.412.0
2017-Jan-17 07:07N 43°58' W 125°13'813.9
2017-Jan-17 06:33N 44°05' W 125°13'1414.0
2017-Jan-17 05:33N 44°19' W 125°13'1414.5
2017-Jan-17 04:34N 44°34' W 125°14'1514.8
2017-Jan-17 03:33N 44°49' W 125°14'1514.7
2017-Jan-17 02:33N 45°03' W 125°15'1514.7
2017-Jan-17 01:33N 45°18' W 125°16'1414.4
2017-Jan-17 00:34N 45°32' W 125°17'1414.4
2017-Jan-16 23:34N 45°47' W 125°17'1514.7
2017-Jan-16 22:34N 46°02' W 125°18'1514.5
2017-Jan-16 21:33N 46°16' W 125°18'1414.4
2017-Jan-16 20:33N 46°31' W 125°18'1414.5
2017-Jan-16 19:34N 46°45' W 125°19'1413.6
2017-Jan-16 18:33N 46°59' W 125°20'1313.5
2017-Jan-16 17:33N 47°12' W 125°20'1313.3
2017-Jan-16 16:33N 47°25' W 125°21'1312.7
2017-Jan-16 15:33N 47°38' W 125°21'1313.4
2017-Jan-16 14:33N 47°51' W 125°23'1312.9
2017-Jan-16 13:33N 48°04' W 125°18'1413.4
2017-Jan-16 12:30N 48°17' W 125°12'1213.1
2017-Jan-16 11:33N 48°29' W 125°04'1312.9
2017-Jan-16 10:34N 48°30' W 124°45'1414.2
2017-Jan-16 09:34N 48°25' W 124°25'1514.9
2017-Jan-16 08:33N 48°20' W 124°04'1615.9
2017-Jan-16 07:33N 48°16' W 123°41'1413.8
2017-Jan-16 06:33N 48°23' W 123°23'1313.4
2017-Jan-16 05:33N 48°35' W 123°14'1616.1
2017-Jan-16 04:33N 48°49' W 123°00'1918.9
2017-Jan-16 03:33N 49°02' W 123°21'9 9.4
2017-Jan-16 02:33N 49°07' W 123°08'9 9.5
2017-Jan-16 01:33N 49°11' W 122°55'1 0.5
2017-Jan-16 00:28N 49°11' W 122°55'0 0.0
2017-Jan-15 23:30N 49°11' W 122°55'0 0.0
2017-Jan-15 22:33N 49°11' W 122°55'0 0.0
2017-Jan-15 21:20N 49°11' W 122°55'0 0.0
2017-Jan-15 20:32N 49°11' W 122°55'0 0.0
2017-Jan-15 19:31N 49°11' W 122°55'0 0.0
2017-Jan-15 18:31N 49°11' W 122°55'0 0.0
2017-Jan-15 17:31N 49°11' W 122°55'0 0.0
2017-Jan-15 16:33N 49°11' W 122°55'0 0.0
2017-Jan-15 15:33N 49°11' W 122°55'0 0.0
2017-Jan-15 14:32N 49°11' W 122°55'0 0.0
2017-Jan-15 13:32N 49°11' W 122°55'0 0.0
2017-Jan-15 12:25N 49°11' W 122°55'0 0.0
2017-Jan-15 11:31N 49°11' W 122°55'0 0.0
2017-Jan-15 10:34N 49°11' W 122°55'0 0.0
2017-Jan-15 09:33N 49°11' W 122°55'0 0.0
2017-Jan-15 08:33N 49°11' W 122°55'0 0.0
2017-Jan-15 07:32N 49°11' W 122°55'0 0.0
2017-Jan-15 06:29N 49°11' W 122°55'0 0.0
2017-Jan-15 05:31N 49°11' W 122°55'0 0.0
2017-Jan-15 04:31N 49°11' W 122°55'0 0.0
2017-Jan-15 03:33N 49°11' W 122°55'0 0.0
2017-Jan-15 02:30N 49°11' W 122°55'0 0.0
2017-Jan-15 01:33N 49°11' W 122°55'0 0.0
2017-Jan-15 00:32N 49°11' W 122°55'0 0.0
2017-Jan-14 23:32N 49°11' W 122°55'0 0.0
2017-Jan-14 22:31N 49°11' W 122°55'0 0.0
2017-Jan-14 21:28N 49°11' W 122°55'0 0.0
2017-Jan-14 20:15N 49°11' W 122°55'0 0.0
2017-Jan-14 19:33N 49°11' W 122°55'0 0.0
2017-Jan-14 18:33N 49°11' W 122°55'6 6.0
2017-Jan-14 17:33N 49°08' W 123°03'1211.8
2017-Jan-14 16:33N 49°05' W 123°20'1312.8
2017-Jan-14 15:34N 48°55' W 123°08'1312.6
2017-Jan-14 14:33N 48°43' W 123°11'1717.1
2017-Jan-14 13:34N 48°26' W 123°10'1211.5
2017-Jan-14 12:34N 48°19' W 123°25'8 7.5
2017-Jan-14 11:34N 48°12' W 123°25'8 8.0
2017-Jan-14 10:33N 48°11' W 123°13'1716.6
2017-Jan-14 09:33N 48°11' W 122°48'1615.7
2017-Jan-14 08:33N 47°59' W 122°35'1717.4
2017-Jan-14 07:33N 47°42' W 122°27'8 8.1
2017-Jan-14 06:33N 47°35' W 122°21'0 0.0
2017-Jan-14 05:33N 47°35' W 122°21'0 0.0
2017-Jan-14 04:33N 47°35' W 122°21'0 0.0
2017-Jan-14 03:32N 47°35' W 122°21'0 0.0
2017-Jan-13 23:33N 47°35' W 122°21'0 0.0
2017-Jan-13 22:33N 47°35' W 122°21'0 0.0
2017-Jan-13 21:33N 47°35' W 122°21'0 0.0
2017-Jan-13 20:33N 47°35' W 122°21'0 0.0
2017-Jan-13 19:29N 47°35' W 122°21'0 0.0
2017-Jan-13 18:32N 47°35' W 122°21'0 0.0
2017-Jan-13 17:32N 47°35' W 122°21'0 0.0
2017-Jan-13 16:33N 47°35' W 122°21'0 0.0
2017-Jan-13 15:33N 47°35' W 122°21'0 0.0
2017-Jan-13 14:33N 47°35' W 122°21'0 0.0
2017-Jan-13 13:32N 47°35' W 122°21'0 0.0
2017-Jan-13 12:32N 47°35' W 122°21'0 0.0
2017-Jan-13 11:31N 47°35' W 122°21'0 0.0
2017-Jan-13 10:32N 47°35' W 122°21'0 0.0
2017-Jan-13 09:32N 47°35' W 122°21'0 0.0
2017-Jan-13 08:32N 47°35' W 122°21'0 0.0
2017-Jan-13 07:32N 47°35' W 122°21'0 0.0
2017-Jan-13 06:31N 47°35' W 122°21'0 0.0
2017-Jan-13 05:31N 47°35' W 122°21'0 0.0
2017-Jan-13 04:33N 47°35' W 122°21'0 0.0
2017-Jan-13 03:33N 47°35' W 122°21'0 0.0
2017-Jan-13 02:33N 47°35' W 122°21'0 0.0
2017-Jan-13 01:33N 47°35' W 122°21'0 0.0
2017-Jan-13 00:32N 47°35' W 122°21'0 0.0
2017-Jan-12 23:31N 47°35' W 122°21'0 0.0
2017-Jan-12 22:31N 47°35' W 122°21'0 0.0
2017-Jan-12 21:33N 47°35' W 122°21'0 0.0
2017-Jan-12 20:33N 47°35' W 122°21'0 0.0
2017-Jan-12 19:32N 47°35' W 122°21'0 0.0
2017-Jan-12 18:32N 47°35' W 122°21'0 0.0
2017-Jan-12 17:31N 47°35' W 122°21'0 0.0
2017-Jan-12 16:28N 47°35' W 122°21'0 0.0
2017-Jan-12 15:31N 47°35' W 122°21'0 0.0
2017-Jan-12 14:33N 47°35' W 122°21'2 1.9
2017-Jan-12 13:33N 47°37' W 122°22'  
Track history (hours):
 
Tides and Currents Weather Stations Pressure Air Temp Water Temp Dewpoint Dewpoint Depression Visibility Wind Speed Wind Dir Waves Ship Positions

London Express

Last reported at 2017-Jan-22 13:31 UTC. Time now 2017-Jan-22 14:24 UTC.
Position N 37°45' W 122°21'.

Length 294 m; beam 32.3 m; draft 13.6 m.

Type: Ship. MMSI: 211262630.

Date/timePositionNaut miles runAvg speedWind from/ knotsBaromVisibWave heightAir tempDewpointWater temp
2017-Jan-22 13:31N 37°45' W 122°21'0 0.3
2017-Jan-22 12:31N 37°45' W 122°21'0 0.2
2017-Jan-22 11:33N 37°45' W 122°21'0 0.0
2017-Jan-22 10:33N 37°45' W 122°21'0 0.1
2017-Jan-22 09:33N 37°45' W 122°21'0 0.0
2017-Jan-22 08:32N 37°45' W 122°21'0 0.0
2017-Jan-22 07:32N 37°45' W 122°21'0 0.0
2017-Jan-22 06:31N 37°45' W 122°21'1018.0
2017-Jan-22 06:00N 37°36' W 122°18'1020.1 140 / 301009.510.8 10.2 9.011.0
2017-Jan-22 05:31N 37°45' W 122°21'0 0.2
2017-Jan-22 04:33N 37°45' W 122°21'0 0.2
2017-Jan-22 03:33N 37°45' W 122°21'0 0.0
2017-Jan-22 02:33N 37°45' W 122°21'0 0.3
2017-Jan-22 01:32N 37°45' W 122°21'0 0.2
2017-Jan-22 00:32N 37°45' W 122°21'0 0.0
2017-Jan-21 23:31N 37°45' W 122°21'0 0.0
2017-Jan-21 22:31N 37°45' W 122°21'0 0.0
2017-Jan-21 21:33N 37°45' W 122°21'0 0.0
2017-Jan-21 20:33N 37°45' W 122°21'0 0.0
2017-Jan-21 19:33N 37°45' W 122°21'0 0.0
2017-Jan-21 18:32N 37°45' W 122°21'4 7.6
2017-Jan-21 18:00N 37°42' W 122°18'4 8.9 230 / 121010.110.8 15.010.912.0
2017-Jan-21 17:32N 37°45' W 122°21'0 0.0
2017-Jan-21 16:31N 37°45' W 122°21'0 0.3
2017-Jan-21 15:31N 37°45' W 122°21'0 0.1
2017-Jan-21 14:34N 37°45' W 122°21'0 0.1
2017-Jan-21 13:33N 37°45' W 122°21'0 0.0
2017-Jan-21 12:33N 37°45' W 122°21'0 0.0
2017-Jan-21 11:32N 37°45' W 122°21'0 0.1
2017-Jan-21 10:32N 37°45' W 122°21'0 0.1
2017-Jan-21 09:31N 37°45' W 122°21'0 0.3
2017-Jan-21 08:31N 37°45' W 122°21'0 0.0
2017-Jan-21 07:30N 37°45' W 122°21'0 0.0
2017-Jan-21 06:33N 37°45' W 122°21'0 0.0
2017-Jan-21 05:33N 37°45' W 122°21'0 0.1
2017-Jan-21 04:32N 37°45' W 122°21'0 0.2
2017-Jan-21 03:32N 37°45' W 122°21'0 0.1
2017-Jan-21 02:31N 37°45' W 122°21'0 0.0
2017-Jan-21 01:31N 37°45' W 122°21'0 0.1
2017-Jan-21 00:33N 37°45' W 122°21'0 0.1
2017-Jan-20 23:33N 37°45' W 122°21'0 0.1
2017-Jan-20 22:33N 37°45' W 122°21'0 0.2
2017-Jan-20 21:32N 37°45' W 122°21'0 0.0
2017-Jan-20 20:32N 37°45' W 122°21'0 0.1
2017-Jan-20 19:34N 37°45' W 122°21'3 3.2
2017-Jan-20 18:33N 37°48' W 122°19'0 0.1
2017-Jan-20 17:33N 37°48' W 122°19'0 0.0
2017-Jan-20 16:33N 37°48' W 122°19'0 0.0
2017-Jan-20 15:32N 37°48' W 122°19'0 0.0
2017-Jan-20 14:33N 37°48' W 122°19'0 0.0
2017-Jan-20 13:31N 37°48' W 122°19'0 0.0
2017-Jan-20 12:33N 37°48' W 122°19'0 0.0
2017-Jan-20 11:33N 37°48' W 122°19'0 0.0
2017-Jan-20 10:32N 37°48' W 122°19'0 0.0
2017-Jan-20 09:32N 37°48' W 122°19'0 0.0
2017-Jan-20 08:32N 37°48' W 122°19'0 0.0
2017-Jan-20 07:31N 37°48' W 122°19'0 0.0
2017-Jan-20 06:31N 37°48' W 122°19'0 0.0
2017-Jan-20 05:33N 37°48' W 122°19'0 0.0
2017-Jan-20 04:33N 37°48' W 122°19'0 0.0
2017-Jan-20 03:32N 37°48' W 122°19'0 0.0
2017-Jan-20 02:32N 37°48' W 122°19'0 0.0
2017-Jan-20 01:31N 37°48' W 122°19'0 0.0
2017-Jan-20 00:31N 37°48' W 122°19'0 0.0
2017-Jan-19 23:31N 37°48' W 122°19'0 0.0
2017-Jan-19 22:33N 37°48' W 122°19'0 0.0
2017-Jan-19 21:33N 37°48' W 122°19'0 0.0
2017-Jan-19 20:33N 37°48' W 122°19'0 0.0
2017-Jan-19 19:32N 37°48' W 122°19'0 0.0
2017-Jan-19 18:32N 37°48' W 122°19'0 0.0
2017-Jan-19 17:31N 37°48' W 122°19'0 0.0
2017-Jan-19 16:31N 37°48' W 122°19'0 0.0
2017-Jan-19 15:34N 37°48' W 122°19'0 0.0
2017-Jan-19 14:33N 37°48' W 122°19'1 0.6
2017-Jan-19 13:33N 37°48' W 122°18'1 0.6
2017-Jan-19 12:34N 37°48' W 122°19'3 3.1
2017-Jan-19 11:33N 37°45' W 122°21'0 0.0
2017-Jan-19 10:31N 37°45' W 122°21'0 0.0
2017-Jan-19 09:31N 37°45' W 122°21'0 0.2
2017-Jan-19 08:34N 37°45' W 122°21'0 0.2
2017-Jan-19 07:33N 37°45' W 122°21'0 0.1
2017-Jan-19 06:33N 37°45' W 122°21'0 0.0
2017-Jan-19 05:32N 37°45' W 122°21'0 0.0
2017-Jan-19 04:32N 37°45' W 122°21'0 0.0
2017-Jan-19 03:31N 37°45' W 122°21'0 0.0
2017-Jan-19 02:31N 37°45' W 122°21'0 0.0
2017-Jan-19 01:33N 37°45' W 122°21'0 0.0
2017-Jan-19 00:33N 37°45' W 122°21'0 0.1
2017-Jan-18 23:33N 37°45' W 122°21'0 0.1
2017-Jan-18 22:32N 37°45' W 122°21'0 0.1
2017-Jan-18 21:32N 37°45' W 122°21'0 0.0
2017-Jan-18 20:31N 37°45' W 122°21'0 0.1
2017-Jan-18 19:34N 37°45' W 122°21'8 8.0
2017-Jan-18 18:33N 37°48' W 122°31'1211.8
2017-Jan-18 17:33N 37°47' W 122°45'9 9.4
2017-Jan-18 16:33N 37°51' W 122°56'1111.4
2017-Jan-18 15:33N 37°56' W 123°09'1212.2
2017-Jan-18 14:33N 38°05' W 123°19'1313.2
2017-Jan-18 13:33N 38°15' W 123°30'1313.0
2017-Jan-18 12:33N 38°24' W 123°42'1312.4
2017-Jan-18 11:31N 38°33' W 123°54'1212.8
2017-Jan-18 10:33N 38°41' W 124°06'14610.8
2017-Jan-17 21:00N 41°00' W 125°06'3612.0 180 / 401012.5 5.4 11.6 8.612.0
2017-Jan-17 18:00N 41°36' W 125°06'14213.0 170 / 391014.410.8 10.9 6.412.0
2017-Jan-17 07:07N 43°58' W 125°13'813.9
2017-Jan-17 06:33N 44°05' W 125°13'1414.0
2017-Jan-17 05:33N 44°19' W 125°13'1414.5
2017-Jan-17 04:34N 44°34' W 125°14'1514.8
2017-Jan-17 03:33N 44°49' W 125°14'1514.7
2017-Jan-17 02:33N 45°03' W 125°15'1514.7
2017-Jan-17 01:33N 45°18' W 125°16'1414.4
2017-Jan-17 00:34N 45°32' W 125°17'1414.4
2017-Jan-16 23:34N 45°47' W 125°17'1514.7
2017-Jan-16 22:34N 46°02' W 125°18'1514.5
2017-Jan-16 21:33N 46°16' W 125°18'1414.4
2017-Jan-16 20:33N 46°31' W 125°18'1414.5
2017-Jan-16 19:34N 46°45' W 125°19'1413.6
2017-Jan-16 18:33N 46°59' W 125°20'1313.5
2017-Jan-16 17:33N 47°12' W 125°20'1313.3
2017-Jan-16 16:33N 47°25' W 125°21'1312.7
2017-Jan-16 15:33N 47°38' W 125°21'1313.4
2017-Jan-16 14:33N 47°51' W 125°23'1312.9
2017-Jan-16 13:33N 48°04' W 125°18'1413.4
2017-Jan-16 12:30N 48°17' W 125°12'1213.1
2017-Jan-16 11:33N 48°29' W 125°04'1312.9
2017-Jan-16 10:34N 48°30' W 124°45'1414.2
2017-Jan-16 09:34N 48°25' W 124°25'1514.9
2017-Jan-16 08:33N 48°20' W 124°04'1615.9
2017-Jan-16 07:33N 48°16' W 123°41'1413.8
2017-Jan-16 06:33N 48°23' W 123°23'1313.4
2017-Jan-16 05:33N 48°35' W 123°14'1616.1
2017-Jan-16 04:33N 48°49' W 123°00'1918.9
2017-Jan-16 03:33N 49°02' W 123°21'9 9.4
2017-Jan-16 02:33N 49°07' W 123°08'9 9.5
2017-Jan-16 01:33N 49°11' W 122°55'1 0.5
2017-Jan-16 00:28N 49°11' W 122°55'0 0.0
2017-Jan-15 23:30N 49°11' W 122°55'0 0.0
2017-Jan-15 22:33N 49°11' W 122°55'0 0.0
2017-Jan-15 21:20N 49°11' W 122°55'0 0.0
2017-Jan-15 20:32N 49°11' W 122°55'0 0.0
2017-Jan-15 19:31N 49°11' W 122°55'0 0.0
2017-Jan-15 18:31N 49°11' W 122°55'0 0.0
2017-Jan-15 17:31N 49°11' W 122°55'0 0.0
2017-Jan-15 16:33N 49°11' W 122°55'0 0.0
2017-Jan-15 15:33N 49°11' W 122°55'0 0.0
2017-Jan-15 14:32N 49°11' W 122°55'0 0.0
2017-Jan-15 13:32N 49°11' W 122°55'0 0.0
2017-Jan-15 12:25N 49°11' W 122°55'0 0.0
2017-Jan-15 11:31N 49°11' W 122°55'0 0.0
2017-Jan-15 10:34N 49°11' W 122°55'0 0.0
2017-Jan-15 09:33N 49°11' W 122°55'0 0.0
2017-Jan-15 08:33N 49°11' W 122°55'0 0.0
2017-Jan-15 07:32N 49°11' W 122°55'0 0.0
2017-Jan-15 06:29N 49°11' W 122°55'0 0.0
2017-Jan-15 05:31N 49°11' W 122°55'0 0.0
2017-Jan-15 04:31N 49°11' W 122°55'0 0.0
2017-Jan-15 03:33N 49°11' W 122°55'0 0.0
2017-Jan-15 02:30N 49°11' W 122°55'0 0.0
2017-Jan-15 01:33N 49°11' W 122°55'0 0.0
2017-Jan-15 00:32N 49°11' W 122°55'0 0.0
2017-Jan-14 23:32N 49°11' W 122°55'0 0.0
2017-Jan-14 22:31N 49°11' W 122°55'0 0.0
2017-Jan-14 21:28N 49°11' W 122°55'0 0.0
2017-Jan-14 20:15N 49°11' W 122°55'0 0.0
2017-Jan-14 19:33N 49°11' W 122°55'0 0.0
2017-Jan-14 18:33N 49°11' W 122°55'6 6.0
2017-Jan-14 17:33N 49°08' W 123°03'1211.8
2017-Jan-14 16:33N 49°05' W 123°20'1312.8
2017-Jan-14 15:34N 48°55' W 123°08'1312.6
2017-Jan-14 14:33N 48°43' W 123°11'1717.1
2017-Jan-14 13:34N 48°26' W 123°10'1211.5
2017-Jan-14 12:34N 48°19' W 123°25'8 7.5
2017-Jan-14 11:34N 48°12' W 123°25'8 8.0
2017-Jan-14 10:33N 48°11' W 123°13'1716.6
2017-Jan-14 09:33N 48°11' W 122°48'1615.7
2017-Jan-14 08:33N 47°59' W 122°35'1717.4
2017-Jan-14 07:33N 47°42' W 122°27'8 8.1
2017-Jan-14 06:33N 47°35' W 122°21'0 0.0
2017-Jan-14 05:33N 47°35' W 122°21'0 0.0
2017-Jan-14 04:33N 47°35' W 122°21'0 0.0
2017-Jan-14 03:32N 47°35' W 122°21'0 0.0
2017-Jan-13 23:33N 47°35' W 122°21'0 0.0
2017-Jan-13 22:33N 47°35' W 122°21'0 0.0
2017-Jan-13 21:33N 47°35' W 122°21'0 0.0
2017-Jan-13 20:33N 47°35' W 122°21'0 0.0
2017-Jan-13 19:29N 47°35' W 122°21'0 0.0
2017-Jan-13 18:32N 47°35' W 122°21'0 0.0
2017-Jan-13 17:32N 47°35' W 122°21'0 0.0
2017-Jan-13 16:33N 47°35' W 122°21'0 0.0
2017-Jan-13 15:33N 47°35' W 122°21'0 0.0
2017-Jan-13 14:33N 47°35' W 122°21'0 0.0
2017-Jan-13 13:32N 47°35' W 122°21'0 0.0
2017-Jan-13 12:32N 47°35' W 122°21'0 0.0
2017-Jan-13 11:31N 47°35' W 122°21'0 0.0
2017-Jan-13 10:32N 47°35' W 122°21'0 0.0
2017-Jan-13 09:32N 47°35' W 122°21'0 0.0
2017-Jan-13 08:32N 47°35' W 122°21'0 0.0
2017-Jan-13 07:32N 47°35' W 122°21'0 0.0
2017-Jan-13 06:31N 47°35' W 122°21'0 0.0
2017-Jan-13 05:31N 47°35' W 122°21'0 0.0
2017-Jan-13 04:33N 47°35' W 122°21'0 0.0
2017-Jan-13 03:33N 47°35' W 122°21'0 0.0
2017-Jan-13 02:33N 47°35' W 122°21'0 0.0
2017-Jan-13 01:33N 47°35' W 122°21'0 0.0
2017-Jan-13 00:32N 47°35' W 122°21'0 0.0
2017-Jan-12 23:31N 47°35' W 122°21'0 0.0
2017-Jan-12 22:31N 47°35' W 122°21'0 0.0
2017-Jan-12 21:33N 47°35' W 122°21'0 0.0
2017-Jan-12 20:33N 47°35' W 122°21'0 0.0
2017-Jan-12 19:32N 47°35' W 122°21'0 0.0
2017-Jan-12 18:32N 47°35' W 122°21'0 0.0
2017-Jan-12 17:31N 47°35' W 122°21'0 0.0
2017-Jan-12 16:28N 47°35' W 122°21'0 0.0
2017-Jan-12 15:31N 47°35' W 122°21'0 0.0
2017-Jan-12 14:33N 47°35' W 122°21'2 1.9
2017-Jan-12 13:33N 47°37' W 122°22'  

Dump ship's entire track history